ASA416 PANC-KSEA
Flight info
| Callsign | ASA416 |
|---|---|
| Flight time | 3h 11m |
| Altitude | 35000 |
| Route | NOEND LAIRE BKA ANN VIXOR MARNR8 |
| Aircraft | B739/M-SDE2E3FGHIRWXY/LB1 |
Departure
| Time | 2026-05-05 11:24 |
|---|---|
| Airport | Ted Stevens Anchorage International Airport (PANC) |
Arrival
| Time | 2026-05-05 14:35 |
|---|---|
| Airport | Seattle–Tacoma International Airport (KSEA) |
| Time | Latitude | Longitude | Altitude | Speed | Heading |
|---|---|---|---|---|---|
| 2026-05-05 10:48 | 61.17538 | -149.98477 | 109 ft | 0 kts | 96° |
| 2026-05-05 11:14 | 61.17539 | -149.98492 | 107 ft | 4 kts | 99° |
| 2026-05-05 11:14 | 61.17543 | -149.98546 | 105 ft | 4 kts | 97° |
| 2026-05-05 11:15 | 61.17548 | -149.98600 | 104 ft | 4 kts | 114° |
| 2026-05-05 11:15 | 61.17562 | -149.98646 | 102 ft | 4 kts | 137° |
| 2026-05-05 11:15 | 61.17579 | -149.98670 | 104 ft | 1 kts | 160° |
| 2026-05-05 11:15 | 61.17582 | -149.98673 | 105 ft | 0 kts | 160° |
| 2026-05-05 11:18 | 61.17563 | -149.98658 | 103 ft | 3 kts | 160° |
| 2026-05-05 11:18 | 61.17541 | -149.98642 | 104 ft | 3 kts | 160° |
| 2026-05-05 11:18 | 61.17517 | -149.98623 | 105 ft | 5 kts | 160° |
| 2026-05-05 11:18 | 61.17471 | -149.98587 | 106 ft | 9 kts | 159° |
| 2026-05-05 11:19 | 61.17400 | -149.98585 | 108 ft | 12 kts | 202° |
| 2026-05-05 11:19 | 61.17318 | -149.98700 | 109 ft | 16 kts | 214° |
| 2026-05-05 11:19 | 61.17219 | -149.98851 | 110 ft | 18 kts | 223° |
| 2026-05-05 11:19 | 61.17138 | -149.99044 | 112 ft | 17 kts | 237° |
| 2026-05-05 11:20 | 61.17125 | -149.99287 | 119 ft | 17 kts | 268° |
| 2026-05-05 11:20 | 61.17125 | -149.99524 | 123 ft | 16 kts | 269° |
| 2026-05-05 11:20 | 61.17123 | -149.99753 | 128 ft | 16 kts | 269° |
| 2026-05-05 11:20 | 61.17122 | -149.99972 | 132 ft | 15 kts | 269° |
| 2026-05-05 11:21 | 61.17121 | -150.00182 | 135 ft | 14 kts | 269° |
| 2026-05-05 11:21 | 61.17121 | -150.00383 | 136 ft | 14 kts | 272° |
| 2026-05-05 11:21 | 61.17125 | -150.00575 | 136 ft | 13 kts | 270° |
| 2026-05-05 11:21 | 61.17118 | -150.00757 | 136 ft | 13 kts | 245° |
| 2026-05-05 11:22 | 61.17038 | -150.00806 | 134 ft | 12 kts | 175° |
| 2026-05-05 11:22 | 61.16982 | -150.00688 | 136 ft | 12 kts | 96° |
| 2026-05-05 11:22 | 61.16982 | -150.00660 | 136 ft | 0 kts | 94° |
| 2026-05-05 11:23 | 61.16981 | -150.00637 | 136 ft | 15 kts | 94° |
| 2026-05-05 11:23 | 61.16978 | -149.99854 | 128 ft | 89 kts | 90° |
| 2026-05-05 11:24 | 61.16978 | -149.98217 | 113 ft | 147 kts | 90° |
| 2026-05-05 11:24 | 61.16988 | -149.95668 | 214 ft | 197 kts | 89° |
| 2026-05-05 11:24 | 61.16975 | -149.92959 | 1516 ft | 177 kts | 90° |
| 2026-05-05 11:24 | 61.16936 | -149.90375 | 2420 ft | 188 kts | 91° |
| 2026-05-05 11:25 | 61.16913 | -149.87474 | 2667 ft | 213 kts | 90° |
| 2026-05-05 11:25 | 61.16871 | -149.84293 | 3061 ft | 225 kts | 93° |
| 2026-05-05 11:25 | 61.16800 | -149.80977 | 3441 ft | 240 kts | 94° |
| 2026-05-05 11:25 | 61.16721 | -149.77446 | 4033 ft | 247 kts | 94° |
| 2026-05-05 11:26 | 61.16642 | -149.73914 | 4974 ft | 244 kts | 95° |
| 2026-05-05 11:26 | 61.16563 | -149.70399 | 5854 ft | 244 kts | 96° |
| 2026-05-05 11:26 | 61.16484 | -149.66874 | 6595 ft | 246 kts | 97° |
| 2026-05-05 11:26 | 61.16401 | -149.63275 | 7203 ft | 255 kts | 97° |
| 2026-05-05 11:27 | 61.16317 | -149.59569 | 7907 ft | 258 kts | 97° |
| 2026-05-05 11:27 | 61.16290 | -149.56483 | 8617 ft | 261 kts | 96° |
| 2026-05-05 11:27 | 61.16253 | -149.54407 | 8937 ft | 264 kts | 97° |
| 2026-05-05 11:27 | 61.16149 | -149.50554 | 9546 ft | 271 kts | 98° |
| 2026-05-05 11:28 | 61.16043 | -149.46654 | 9589 ft | 276 kts | 97° |
| 2026-05-05 11:28 | 61.15941 | -149.42709 | 9660 ft | 273 kts | 97° |
| 2026-05-05 11:28 | 61.15844 | -149.38833 | 9647 ft | 265 kts | 98° |
| 2026-05-05 11:28 | 61.15751 | -149.35064 | 9635 ft | 259 kts | 98° |
| 2026-05-05 11:29 | 61.15661 | -149.31338 | 9644 ft | 259 kts | 98° |
| 2026-05-05 11:29 | 61.15648 | -149.30779 | 9653 ft | 259 kts | 98° |
| 2026-05-05 11:29 | 61.15624 | -149.29771 | 9633 ft | 260 kts | 98° |
| 2026-05-05 11:29 | 61.15527 | -149.26009 | 9651 ft | 265 kts | 98° |
| 2026-05-05 11:30 | 61.15410 | -149.22200 | 9613 ft | 262 kts | 99° |
| 2026-05-05 11:30 | 61.15280 | -149.18483 | 9731 ft | 257 kts | 102° |
| 2026-05-05 11:30 | 61.15157 | -149.14671 | 9825 ft | 277 kts | 96° |
| 2026-05-05 11:30 | 61.15105 | -149.10520 | 10013 ft | 299 kts | 97° |
| 2026-05-05 11:31 | 61.14999 | -149.06079 | 10115 ft | 318 kts | 97° |
| 2026-05-05 11:31 | 61.14872 | -149.01382 | 10336 ft | 334 kts | 98° |
| 2026-05-05 11:31 | 61.14740 | -148.96525 | 10752 ft | 342 kts | 97° |
| 2026-05-05 11:31 | 61.14605 | -148.91559 | 11319 ft | 348 kts | 97° |
| 2026-05-05 11:32 | 61.14465 | -148.86513 | 11854 ft | 356 kts | 97° |
| 2026-05-05 11:32 | 61.14320 | -148.81366 | 12479 ft | 360 kts | 97° |
| 2026-05-05 11:32 | 61.14172 | -148.76149 | 12977 ft | 367 kts | 97° |
| 2026-05-05 11:32 | 61.14019 | -148.70827 | 13488 ft | 374 kts | 97° |
| 2026-05-05 11:33 | 61.13863 | -148.65425 | 14005 ft | 378 kts | 97° |
| 2026-05-05 11:33 | 61.13710 | -148.60083 | 14982 ft | 368 kts | 99° |
| 2026-05-05 11:33 | 61.13547 | -148.54757 | 15468 ft | 374 kts | 99° |
| 2026-05-05 11:33 | 61.13300 | -148.49360 | 15876 ft | 378 kts | 106° |
| 2026-05-05 11:34 | 61.12629 | -148.44112 | 16328 ft | 378 kts | 114° |
| 2026-05-05 11:34 | 61.11565 | -148.39144 | 16795 ft | 380 kts | 121° |
| 2026-05-05 11:34 | 61.10390 | -148.34274 | 17462 ft | 378 kts | 122° |
| 2026-05-05 11:34 | 61.09182 | -148.29484 | 17918 ft | 383 kts | 123° |
| 2026-05-05 11:35 | 61.07923 | -148.24585 | 18304 ft | 390 kts | 123° |
| 2026-05-05 11:35 | 61.06652 | -148.19612 | 18760 ft | 393 kts | 122° |
| 2026-05-05 11:35 | 61.05391 | -148.14617 | 19247 ft | 393 kts | 122° |
| 2026-05-05 11:35 | 61.04133 | -148.09592 | 19763 ft | 395 kts | 122° |
| 2026-05-05 11:36 | 61.02858 | -148.04527 | 20198 ft | 399 kts | 122° |
| 2026-05-05 11:36 | 61.01582 | -147.99428 | 20720 ft | 400 kts | 122° |
| 2026-05-05 11:36 | 61.00303 | -147.94328 | 21264 ft | 401 kts | 122° |
| 2026-05-05 11:36 | 60.99016 | -147.89208 | 21691 ft | 404 kts | 122° |
| 2026-05-05 11:37 | 60.97717 | -147.84054 | 22148 ft | 407 kts | 123° |
| 2026-05-05 11:37 | 60.96405 | -147.78887 | 22639 ft | 408 kts | 123° |
| 2026-05-05 11:37 | 60.95086 | -147.73670 | 23111 ft | 412 kts | 123° |
| 2026-05-05 11:37 | 60.93759 | -147.68429 | 23517 ft | 414 kts | 123° |
| 2026-05-05 11:38 | 60.92425 | -147.63172 | 23897 ft | 416 kts | 123° |
| 2026-05-05 11:38 | 60.91080 | -147.57885 | 24227 ft | 419 kts | 123° |
| 2026-05-05 11:38 | 60.89721 | -147.52555 | 24575 ft | 422 kts | 123° |
| 2026-05-05 11:38 | 60.88353 | -147.47206 | 24925 ft | 424 kts | 123° |
| 2026-05-05 11:39 | 60.86974 | -147.41830 | 25219 ft | 427 kts | 124° |
| 2026-05-05 11:39 | 60.85592 | -147.36443 | 25590 ft | 428 kts | 124° |
| 2026-05-05 11:39 | 60.84198 | -147.31037 | 25937 ft | 429 kts | 124° |
| 2026-05-05 11:39 | 60.82794 | -147.25611 | 26239 ft | 432 kts | 124° |
| 2026-05-05 11:40 | 60.81380 | -147.20157 | 26542 ft | 435 kts | 124° |
| 2026-05-05 11:40 | 60.79956 | -147.14675 | 26941 ft | 435 kts | 124° |
| 2026-05-05 11:40 | 60.78533 | -147.09204 | 27342 ft | 436 kts | 124° |
| 2026-05-05 11:40 | 60.77096 | -147.03700 | 27496 ft | 441 kts | 124° |
| 2026-05-05 11:41 | 60.75639 | -146.98139 | 27743 ft | 444 kts | 125° |
| 2026-05-05 11:41 | 60.74199 | -146.92645 | 28164 ft | 443 kts | 125° |
| 2026-05-05 11:41 | 60.72728 | -146.87040 | 28674 ft | 441 kts | 125° |
| 2026-05-05 11:41 | 60.71299 | -146.81601 | 29091 ft | 440 kts | 126° |
| 2026-05-05 11:42 | 60.69850 | -146.76109 | 29489 ft | 439 kts | 126° |
| 2026-05-05 11:42 | 60.68398 | -146.70625 | 29857 ft | 439 kts | 126° |
| 2026-05-05 11:42 | 60.66945 | -146.65154 | 30176 ft | 439 kts | 126° |
| 2026-05-05 11:42 | 60.65487 | -146.59681 | 30461 ft | 439 kts | 126° |
| 2026-05-05 11:43 | 60.64024 | -146.54202 | 30734 ft | 440 kts | 126° |
| 2026-05-05 11:43 | 60.62558 | -146.48723 | 30996 ft | 441 kts | 126° |
| 2026-05-05 11:43 | 60.61088 | -146.43244 | 31275 ft | 441 kts | 126° |
| 2026-05-05 11:43 | 60.59618 | -146.37772 | 31555 ft | 441 kts | 126° |
| 2026-05-05 11:44 | 60.58143 | -146.32297 | 31814 ft | 441 kts | 126° |
| 2026-05-05 11:44 | 60.56666 | -146.26828 | 32058 ft | 442 kts | 126° |
| 2026-05-05 11:44 | 60.55188 | -146.21359 | 32329 ft | 440 kts | 127° |
| 2026-05-05 11:44 | 60.53713 | -146.15921 | 32650 ft | 439 kts | 127° |
| 2026-05-05 11:45 | 60.52253 | -146.10554 | 32886 ft | 440 kts | 127° |
| 2026-05-05 11:45 | 60.50770 | -146.05119 | 33127 ft | 441 kts | 127° |
| 2026-05-05 11:45 | 60.49283 | -145.99684 | 33386 ft | 440 kts | 127° |
| 2026-05-05 11:45 | 60.47796 | -145.94254 | 33656 ft | 440 kts | 127° |
| 2026-05-05 11:46 | 60.46307 | -145.88835 | 33877 ft | 440 kts | 127° |
| 2026-05-05 11:46 | 60.44796 | -145.83347 | 34035 ft | 441 kts | 127° |
| 2026-05-05 11:46 | 60.43311 | -145.77970 | 34175 ft | 443 kts | 127° |
| 2026-05-05 11:46 | 60.41805 | -145.72526 | 34356 ft | 443 kts | 127° |
| 2026-05-05 11:47 | 60.40299 | -145.67086 | 34528 ft | 442 kts | 127° |
| 2026-05-05 11:47 | 60.38796 | -145.61672 | 34746 ft | 441 kts | 127° |
| 2026-05-05 11:47 | 60.37289 | -145.56265 | 34837 ft | 443 kts | 127° |
| 2026-05-05 11:48 | 60.32728 | -145.39982 | 34847 ft | 443 kts | 127° |
| 2026-05-05 11:48 | 60.29690 | -145.29184 | 34850 ft | 441 kts | 127° |
| 2026-05-05 11:49 | 60.26651 | -145.18441 | 34842 ft | 440 kts | 128° |
| 2026-05-05 11:49 | 60.23617 | -145.07764 | 34835 ft | 438 kts | 128° |
| 2026-05-05 11:50 | 60.20578 | -144.97129 | 34842 ft | 438 kts | 128° |
| 2026-05-05 11:50 | 60.17537 | -144.86534 | 34850 ft | 438 kts | 128° |
| 2026-05-05 11:51 | 60.14483 | -144.75945 | 34850 ft | 438 kts | 128° |
| 2026-05-05 11:51 | 60.11435 | -144.65424 | 34851 ft | 439 kts | 129° |
| 2026-05-05 11:52 | 60.08352 | -144.54826 | 34811 ft | 440 kts | 129° |
| 2026-05-05 11:52 | 60.05257 | -144.44234 | 34841 ft | 440 kts | 129° |
| 2026-05-05 11:53 | 60.02154 | -144.33669 | 34855 ft | 441 kts | 129° |
| 2026-05-05 11:53 | 59.99037 | -144.23103 | 34844 ft | 441 kts | 129° |
| 2026-05-05 11:54 | 59.95913 | -144.12560 | 34859 ft | 441 kts | 129° |
| 2026-05-05 11:54 | 59.92780 | -144.02032 | 34858 ft | 441 kts | 129° |
| 2026-05-05 11:55 | 59.89638 | -143.91526 | 34856 ft | 441 kts | 129° |
| 2026-05-05 11:55 | 59.86491 | -143.81050 | 34857 ft | 440 kts | 130° |
| 2026-05-05 11:56 | 59.83340 | -143.70609 | 34854 ft | 440 kts | 130° |
| 2026-05-05 11:56 | 59.80184 | -143.60195 | 34866 ft | 439 kts | 130° |
| 2026-05-05 11:57 | 59.77023 | -143.49815 | 34868 ft | 439 kts | 130° |
| 2026-05-05 11:57 | 59.73862 | -143.39476 | 34863 ft | 437 kts | 130° |
| 2026-05-05 11:58 | 59.70720 | -143.29252 | 34869 ft | 436 kts | 130° |
| 2026-05-05 11:58 | 59.67555 | -143.18997 | 34877 ft | 436 kts | 131° |
| 2026-05-05 11:59 | 59.64386 | -143.08773 | 34877 ft | 436 kts | 131° |
| 2026-05-05 11:59 | 59.61746 | -143.00291 | 34880 ft | 435 kts | 131° |
| 2026-05-05 12:00 | 59.58569 | -142.90122 | 34859 ft | 434 kts | 131° |
| 2026-05-05 12:00 | 59.55386 | -142.79979 | 34880 ft | 434 kts | 131° |
| 2026-05-05 12:01 | 59.52202 | -142.69879 | 34887 ft | 434 kts | 131° |
| 2026-05-05 12:01 | 59.49005 | -142.59781 | 34893 ft | 434 kts | 132° |
| 2026-05-05 12:02 | 59.45798 | -142.49696 | 34891 ft | 435 kts | 132° |
| 2026-05-05 12:02 | 59.42583 | -142.39625 | 34863 ft | 435 kts | 132° |
| 2026-05-05 12:03 | 59.39470 | -142.29902 | 34882 ft | 429 kts | 133° |
| 2026-05-05 12:03 | 59.36268 | -142.19971 | 34900 ft | 434 kts | 133° |
| 2026-05-05 12:04 | 59.33016 | -142.09932 | 34912 ft | 438 kts | 133° |
| 2026-05-05 12:04 | 59.29737 | -141.99835 | 34913 ft | 440 kts | 133° |
| 2026-05-05 12:05 | 59.26470 | -141.89812 | 34840 ft | 440 kts | 133° |
| 2026-05-05 12:05 | 59.23180 | -141.79757 | 34900 ft | 439 kts | 133° |
| 2026-05-05 12:06 | 59.19884 | -141.69738 | 34906 ft | 438 kts | 133° |
| 2026-05-05 12:06 | 59.16582 | -141.59745 | 34916 ft | 438 kts | 133° |
| 2026-05-05 12:07 | 59.13277 | -141.49784 | 34917 ft | 438 kts | 133° |
| 2026-05-05 12:07 | 59.09965 | -141.39843 | 34858 ft | 437 kts | 133° |
| 2026-05-05 12:08 | 59.06653 | -141.29943 | 34915 ft | 436 kts | 134° |
| 2026-05-05 12:08 | 59.03332 | -141.20062 | 34920 ft | 437 kts | 134° |
| 2026-05-05 12:09 | 58.99991 | -141.10164 | 34927 ft | 438 kts | 134° |
| 2026-05-05 12:09 | 58.96641 | -141.00276 | 34926 ft | 440 kts | 134° |
| 2026-05-05 12:10 | 58.93268 | -140.90363 | 34931 ft | 441 kts | 134° |
| 2026-05-05 12:10 | 58.89886 | -140.80461 | 34924 ft | 441 kts | 134° |
| 2026-05-05 12:11 | 58.86491 | -140.70563 | 34937 ft | 442 kts | 134° |
| 2026-05-05 12:11 | 58.83078 | -140.60649 | 34936 ft | 443 kts | 134° |
| 2026-05-05 12:12 | 58.79646 | -140.50737 | 34937 ft | 444 kts | 134° |
| 2026-05-05 12:12 | 58.76182 | -140.40898 | 34937 ft | 444 kts | 135° |
| 2026-05-05 12:13 | 58.72700 | -140.31089 | 34936 ft | 442 kts | 135° |
| 2026-05-05 12:13 | 58.69222 | -140.21318 | 34938 ft | 443 kts | 135° |
| 2026-05-05 12:14 | 58.65735 | -140.11551 | 34949 ft | 443 kts | 135° |
| 2026-05-05 12:14 | 58.62267 | -140.01872 | 34949 ft | 443 kts | 135° |
| 2026-05-05 12:15 | 58.58766 | -139.92136 | 34951 ft | 443 kts | 135° |
| 2026-05-05 12:15 | 58.55258 | -139.82418 | 34943 ft | 442 kts | 135° |
| 2026-05-05 12:16 | 58.51746 | -139.72735 | 34959 ft | 443 kts | 135° |
| 2026-05-05 12:16 | 58.48219 | -139.63054 | 34956 ft | 443 kts | 135° |
| 2026-05-05 12:17 | 58.44687 | -139.53394 | 34962 ft | 444 kts | 136° |
| 2026-05-05 12:17 | 58.41140 | -139.43733 | 34962 ft | 444 kts | 136° |
| 2026-05-05 12:18 | 58.37594 | -139.34108 | 34970 ft | 443 kts | 136° |
| 2026-05-05 12:18 | 58.34041 | -139.24509 | 34971 ft | 444 kts | 136° |
| 2026-05-05 12:19 | 58.30474 | -139.14912 | 34967 ft | 444 kts | 137° |
| 2026-05-05 12:19 | 58.26901 | -139.05336 | 34964 ft | 444 kts | 137° |
| 2026-05-05 12:20 | 58.23317 | -138.95770 | 34967 ft | 445 kts | 137° |
| 2026-05-05 12:20 | 58.19724 | -138.86214 | 34965 ft | 445 kts | 137° |
| 2026-05-05 12:21 | 58.16126 | -138.76685 | 34972 ft | 445 kts | 137° |
| 2026-05-05 12:21 | 58.12521 | -138.67176 | 34975 ft | 444 kts | 137° |
| 2026-05-05 12:22 | 58.08910 | -138.57688 | 34964 ft | 444 kts | 137° |
| 2026-05-05 12:22 | 58.05298 | -138.48237 | 34903 ft | 443 kts | 137° |
| 2026-05-05 12:23 | 58.01708 | -138.38877 | 34974 ft | 441 kts | 138° |
| 2026-05-05 12:23 | 57.98095 | -138.29496 | 34980 ft | 441 kts | 138° |
| 2026-05-05 12:24 | 57.94477 | -138.20143 | 34986 ft | 442 kts | 138° |
| 2026-05-05 12:24 | 57.90849 | -138.10799 | 34986 ft | 442 kts | 138° |
| 2026-05-05 12:25 | 57.87217 | -138.01482 | 34928 ft | 442 kts | 138° |
| 2026-05-05 12:25 | 57.83579 | -137.92179 | 34983 ft | 442 kts | 138° |
| 2026-05-05 12:26 | 57.79927 | -137.82882 | 34988 ft | 442 kts | 138° |
| 2026-05-05 12:26 | 57.76262 | -137.73591 | 35001 ft | 444 kts | 138° |
| 2026-05-05 12:27 | 57.72584 | -137.64301 | 34989 ft | 445 kts | 138° |
| 2026-05-05 12:27 | 57.68910 | -137.55054 | 34933 ft | 446 kts | 138° |
| 2026-05-05 12:28 | 57.65208 | -137.45770 | 34987 ft | 445 kts | 138° |
| 2026-05-05 12:28 | 57.61496 | -137.36502 | 34996 ft | 446 kts | 138° |
| 2026-05-05 12:29 | 57.57769 | -137.27233 | 34995 ft | 447 kts | 138° |
| 2026-05-05 12:29 | 57.54028 | -137.17963 | 34997 ft | 448 kts | 138° |
| 2026-05-05 12:30 | 57.50270 | -137.08686 | 34947 ft | 449 kts | 138° |
| 2026-05-05 12:30 | 57.46512 | -136.99443 | 34987 ft | 449 kts | 138° |
| 2026-05-05 12:31 | 57.42736 | -136.90195 | 35000 ft | 449 kts | 138° |
| 2026-05-05 12:31 | 57.38945 | -136.80948 | 35002 ft | 450 kts | 138° |
| 2026-05-05 12:32 | 57.35143 | -136.71707 | 35001 ft | 451 kts | 138° |
| 2026-05-05 12:32 | 57.31328 | -136.62469 | 34984 ft | 452 kts | 138° |
| 2026-05-05 12:33 | 57.27529 | -136.53303 | 34998 ft | 452 kts | 138° |
| 2026-05-05 12:33 | 57.23691 | -136.44081 | 35008 ft | 453 kts | 138° |
| 2026-05-05 12:34 | 57.19837 | -136.34858 | 35007 ft | 454 kts | 138° |
| 2026-05-05 12:34 | 57.15975 | -136.25648 | 35005 ft | 454 kts | 138° |
| 2026-05-05 12:35 | 57.12097 | -136.16437 | 35001 ft | 454 kts | 138° |
| 2026-05-05 12:35 | 57.08217 | -136.07255 | 35001 ft | 455 kts | 138° |
| 2026-05-05 12:36 | 57.04326 | -135.98082 | 35009 ft | 455 kts | 138° |
| 2026-05-05 12:36 | 57.00421 | -135.88912 | 35000 ft | 456 kts | 138° |
| 2026-05-05 12:37 | 56.96502 | -135.79744 | 34947 ft | 457 kts | 138° |
| 2026-05-05 12:37 | 56.92581 | -135.70601 | 34986 ft | 456 kts | 138° |
| 2026-05-05 12:38 | 56.88669 | -135.61514 | 34989 ft | 457 kts | 138° |
| 2026-05-05 12:38 | 56.84730 | -135.52374 | 34993 ft | 458 kts | 137° |
| 2026-05-05 12:39 | 56.80844 | -135.43117 | 34991 ft | 460 kts | 137° |
| 2026-05-05 12:39 | 56.76970 | -135.33829 | 34961 ft | 460 kts | 137° |
| 2026-05-05 12:40 | 56.73083 | -135.24564 | 34989 ft | 460 kts | 137° |
| 2026-05-05 12:40 | 56.69177 | -135.15316 | 34993 ft | 461 kts | 137° |
| 2026-05-05 12:41 | 56.65260 | -135.06086 | 34993 ft | 462 kts | 137° |
| 2026-05-05 12:41 | 56.61990 | -134.98408 | 34994 ft | 462 kts | 137° |
| 2026-05-05 12:42 | 56.58050 | -134.89190 | 34972 ft | 462 kts | 137° |
| 2026-05-05 12:42 | 56.54110 | -134.79998 | 34990 ft | 460 kts | 137° |
| 2026-05-05 12:43 | 56.50202 | -134.70880 | 35002 ft | 459 kts | 137° |
| 2026-05-05 12:43 | 56.46244 | -134.61723 | 35001 ft | 458 kts | 137° |
| 2026-05-05 12:44 | 56.42316 | -134.52706 | 34996 ft | 460 kts | 137° |
| 2026-05-05 12:44 | 56.38351 | -134.43618 | 34998 ft | 461 kts | 137° |
| 2026-05-05 12:45 | 56.34371 | -134.34515 | 34996 ft | 462 kts | 137° |
| 2026-05-05 12:45 | 56.30377 | -134.25411 | 34988 ft | 463 kts | 137° |
| 2026-05-05 12:46 | 56.26369 | -134.16313 | 35000 ft | 464 kts | 137° |
| 2026-05-05 12:46 | 56.22332 | -134.07216 | 34948 ft | 465 kts | 137° |
| 2026-05-05 12:47 | 56.18308 | -133.98122 | 34969 ft | 465 kts | 137° |
| 2026-05-05 12:47 | 56.14276 | -133.89054 | 34975 ft | 464 kts | 137° |
| 2026-05-05 12:48 | 56.10242 | -133.80027 | 34971 ft | 463 kts | 137° |
| 2026-05-05 12:48 | 56.06208 | -133.71039 | 34982 ft | 462 kts | 137° |
| 2026-05-05 12:49 | 56.02149 | -133.62031 | 34964 ft | 462 kts | 137° |
| 2026-05-05 12:49 | 55.98136 | -133.53152 | 34970 ft | 462 kts | 137° |
| 2026-05-05 12:50 | 55.94089 | -133.44236 | 34974 ft | 463 kts | 137° |
| 2026-05-05 12:50 | 55.90022 | -133.35307 | 34968 ft | 464 kts | 137° |
| 2026-05-05 12:51 | 55.85948 | -133.26396 | 34934 ft | 464 kts | 137° |
| 2026-05-05 12:51 | 55.81861 | -133.17485 | 34955 ft | 465 kts | 137° |
| 2026-05-05 12:52 | 55.77757 | -133.08575 | 34966 ft | 466 kts | 137° |
| 2026-05-05 12:52 | 55.73639 | -132.99666 | 34978 ft | 467 kts | 137° |
| 2026-05-05 12:53 | 55.69511 | -132.90764 | 34973 ft | 467 kts | 137° |
| 2026-05-05 12:53 | 55.65371 | -132.81877 | 34965 ft | 467 kts | 136° |
| 2026-05-05 12:54 | 55.59141 | -132.68552 | 34958 ft | 469 kts | 136° |
| 2026-05-05 12:55 | 55.54989 | -132.59719 | 34954 ft | 470 kts | 137° |
| 2026-05-05 12:55 | 55.50800 | -132.50834 | 34954 ft | 470 kts | 137° |
| 2026-05-05 12:56 | 55.46614 | -132.41992 | 34940 ft | 469 kts | 136° |
| 2026-05-05 12:56 | 55.42425 | -132.33171 | 34937 ft | 468 kts | 136° |
| 2026-05-05 12:57 | 55.38240 | -132.24391 | 34950 ft | 468 kts | 136° |
| 2026-05-05 12:57 | 55.34088 | -132.15695 | 34948 ft | 467 kts | 136° |
| 2026-05-05 12:58 | 55.29895 | -132.06977 | 34935 ft | 466 kts | 136° |
| 2026-05-05 12:58 | 55.25710 | -131.98299 | 34945 ft | 466 kts | 136° |
| 2026-05-05 12:59 | 55.21517 | -131.89630 | 34963 ft | 466 kts | 136° |
| 2026-05-05 12:59 | 55.17313 | -131.80967 | 34950 ft | 467 kts | 136° |
| 2026-05-05 13:00 | 55.10981 | -131.67974 | 34938 ft | 468 kts | 136° |
| 2026-05-05 13:01 | 55.02120 | -131.51415 | 34949 ft | 464 kts | 144° |
| 2026-05-05 13:01 | 54.97270 | -131.44128 | 34944 ft | 464 kts | 145° |
| 2026-05-05 13:02 | 54.92359 | -131.36775 | 34920 ft | 466 kts | 144° |
| 2026-05-05 13:02 | 54.87475 | -131.29370 | 34942 ft | 466 kts | 144° |
| 2026-05-05 13:03 | 54.82590 | -131.21940 | 34947 ft | 467 kts | 144° |
| 2026-05-05 13:03 | 54.77692 | -131.14499 | 34954 ft | 468 kts | 144° |
| 2026-05-05 13:04 | 54.72786 | -131.07071 | 34951 ft | 468 kts | 144° |
| 2026-05-05 13:04 | 54.67873 | -130.99659 | 34946 ft | 468 kts | 143° |
| 2026-05-05 13:05 | 54.62954 | -130.92265 | 34956 ft | 469 kts | 143° |
| 2026-05-05 13:05 | 54.58061 | -130.84935 | 34954 ft | 469 kts | 144° |
| 2026-05-05 13:06 | 54.53130 | -130.77572 | 34955 ft | 469 kts | 144° |
| 2026-05-05 13:06 | 54.48188 | -130.70216 | 34948 ft | 469 kts | 144° |
| 2026-05-05 13:07 | 54.43245 | -130.62884 | 34940 ft | 469 kts | 144° |
| 2026-05-05 13:07 | 54.38297 | -130.55569 | 34938 ft | 469 kts | 144° |
| 2026-05-05 13:08 | 54.33349 | -130.48277 | 34935 ft | 469 kts | 144° |
| 2026-05-05 13:08 | 54.28401 | -130.41009 | 34924 ft | 468 kts | 144° |
| 2026-05-05 13:09 | 54.23450 | -130.33761 | 34935 ft | 468 kts | 144° |
| 2026-05-05 13:09 | 54.18489 | -130.26524 | 34962 ft | 469 kts | 144° |
| 2026-05-05 13:10 | 54.13525 | -130.19304 | 34963 ft | 469 kts | 144° |
| 2026-05-05 13:10 | 54.08556 | -130.12099 | 34943 ft | 469 kts | 144° |
| 2026-05-05 13:11 | 54.03575 | -130.04899 | 34971 ft | 470 kts | 144° |
| 2026-05-05 13:11 | 53.98586 | -129.97711 | 34960 ft | 470 kts | 144° |
| 2026-05-05 13:12 | 53.93631 | -129.90590 | 34957 ft | 470 kts | 144° |
| 2026-05-05 13:12 | 53.88628 | -129.83453 | 34954 ft | 469 kts | 144° |
| 2026-05-05 13:13 | 53.83595 | -129.76297 | 34971 ft | 469 kts | 144° |
| 2026-05-05 13:13 | 53.78581 | -129.69179 | 34968 ft | 472 kts | 144° |
| 2026-05-05 13:14 | 53.73582 | -129.62092 | 34954 ft | 472 kts | 144° |
| 2026-05-05 13:14 | 53.68542 | -129.54946 | 34931 ft | 473 kts | 143° |
| 2026-05-05 13:15 | 53.63488 | -129.47830 | 34969 ft | 474 kts | 143° |
| 2026-05-05 13:15 | 53.58421 | -129.40719 | 34979 ft | 474 kts | 143° |
| 2026-05-05 13:16 | 53.53341 | -129.33606 | 34973 ft | 475 kts | 144° |
| 2026-05-05 13:16 | 53.48258 | -129.26490 | 34964 ft | 475 kts | 144° |
| 2026-05-05 13:17 | 53.43160 | -129.19412 | 34966 ft | 475 kts | 143° |
| 2026-05-05 13:17 | 53.38065 | -129.12370 | 34967 ft | 475 kts | 143° |
| 2026-05-05 13:18 | 53.32959 | -129.05324 | 34967 ft | 476 kts | 143° |
| 2026-05-05 13:18 | 53.27851 | -128.98287 | 34972 ft | 475 kts | 143° |
| 2026-05-05 13:19 | 53.22750 | -128.91289 | 34973 ft | 474 kts | 143° |
| 2026-05-05 13:19 | 53.17630 | -128.84292 | 34970 ft | 476 kts | 143° |
| 2026-05-05 13:20 | 53.12504 | -128.77300 | 34970 ft | 477 kts | 143° |
| 2026-05-05 13:20 | 53.07388 | -128.70347 | 34970 ft | 478 kts | 143° |
| 2026-05-05 13:21 | 53.02233 | -128.63360 | 34971 ft | 479 kts | 143° |
| 2026-05-05 13:21 | 52.97063 | -128.56377 | 34968 ft | 479 kts | 143° |
| 2026-05-05 13:22 | 52.91893 | -128.49393 | 34967 ft | 479 kts | 143° |
| 2026-05-05 13:22 | 52.86706 | -128.42443 | 34973 ft | 481 kts | 143° |
| 2026-05-05 13:23 | 52.81462 | -128.35458 | 35035 ft | 488 kts | 143° |
| 2026-05-05 13:23 | 52.76136 | -128.28367 | 35201 ft | 493 kts | 143° |
| 2026-05-05 13:24 | 52.73473 | -128.24819 | 35357 ft | 493 kts | 143° |
| 2026-05-05 13:24 | 52.71669 | -128.22419 | 35485 ft | 492 kts | 143° |
| 2026-05-05 13:24 | 52.69042 | -128.18929 | 35699 ft | 490 kts | 143° |
| 2026-05-05 13:24 | 52.66393 | -128.15417 | 35989 ft | 488 kts | 143° |
| 2026-05-05 13:25 | 52.63742 | -128.11909 | 36140 ft | 489 kts | 143° |
| 2026-05-05 13:25 | 52.61075 | -128.08391 | 36184 ft | 492 kts | 144° |
| 2026-05-05 13:25 | 52.58398 | -128.04863 | 36288 ft | 493 kts | 143° |
| 2026-05-05 13:25 | 52.55730 | -128.01351 | 36500 ft | 491 kts | 143° |
| 2026-05-05 13:26 | 52.53060 | -127.97843 | 36666 ft | 491 kts | 144° |
| 2026-05-05 13:26 | 52.50395 | -127.94347 | 36891 ft | 487 kts | 144° |
| 2026-05-05 13:26 | 52.45128 | -127.87453 | 36983 ft | 484 kts | 144° |
| 2026-05-05 13:27 | 52.39832 | -127.80550 | 36990 ft | 488 kts | 144° |
| 2026-05-05 13:27 | 52.34509 | -127.73627 | 36981 ft | 489 kts | 144° |
| 2026-05-05 13:28 | 52.29175 | -127.66710 | 36976 ft | 489 kts | 144° |
| 2026-05-05 13:28 | 52.23846 | -127.59814 | 36969 ft | 489 kts | 143° |
| 2026-05-05 13:29 | 52.18519 | -127.52930 | 36977 ft | 489 kts | 143° |
| 2026-05-05 13:29 | 52.13203 | -127.46107 | 36982 ft | 488 kts | 144° |
| 2026-05-05 13:30 | 52.07865 | -127.39294 | 36968 ft | 487 kts | 144° |
| 2026-05-05 13:30 | 52.02531 | -127.32495 | 36976 ft | 487 kts | 143° |
| 2026-05-05 13:31 | 51.97207 | -127.25724 | 36953 ft | 485 kts | 144° |
| 2026-05-05 13:31 | 51.91881 | -127.18992 | 36988 ft | 487 kts | 144° |
| 2026-05-05 13:32 | 51.86530 | -127.12217 | 36999 ft | 489 kts | 144° |
| 2026-05-05 13:32 | 51.81142 | -127.05429 | 36998 ft | 491 kts | 144° |
| 2026-05-05 13:33 | 51.75781 | -126.98686 | 37003 ft | 492 kts | 144° |
| 2026-05-05 13:33 | 51.70369 | -126.91904 | 36995 ft | 492 kts | 144° |
| 2026-05-05 13:34 | 51.64957 | -126.85140 | 36991 ft | 492 kts | 144° |
| 2026-05-05 13:34 | 51.59553 | -126.78399 | 36978 ft | 492 kts | 144° |
| 2026-05-05 13:35 | 51.54138 | -126.71686 | 36996 ft | 491 kts | 143° |
| 2026-05-05 13:35 | 51.48736 | -126.65019 | 36979 ft | 490 kts | 144° |
| 2026-05-05 13:36 | 51.43353 | -126.58393 | 36992 ft | 490 kts | 143° |
| 2026-05-05 13:36 | 51.37946 | -126.51740 | 37011 ft | 490 kts | 144° |
| 2026-05-05 13:37 | 51.32548 | -126.45121 | 36989 ft | 487 kts | 144° |
| 2026-05-05 13:37 | 51.27156 | -126.38525 | 36990 ft | 489 kts | 143° |
| 2026-05-05 13:38 | 51.21734 | -126.31916 | 36964 ft | 492 kts | 143° |
| 2026-05-05 13:38 | 51.16269 | -126.25311 | 36976 ft | 493 kts | 143° |
| 2026-05-05 13:39 | 51.10806 | -126.18684 | 36979 ft | 494 kts | 143° |
| 2026-05-05 13:39 | 51.05334 | -126.12016 | 36983 ft | 496 kts | 143° |
| 2026-05-05 13:40 | 50.99835 | -126.05417 | 36979 ft | 496 kts | 143° |
| 2026-05-05 13:40 | 50.94314 | -125.98817 | 36977 ft | 497 kts | 143° |
| 2026-05-05 13:41 | 50.88797 | -125.92226 | 36967 ft | 497 kts | 143° |
| 2026-05-05 13:41 | 50.83314 | -125.85681 | 36972 ft | 496 kts | 143° |
| 2026-05-05 13:42 | 50.77800 | -125.79118 | 36973 ft | 496 kts | 143° |
| 2026-05-05 13:42 | 50.72282 | -125.72588 | 36979 ft | 495 kts | 143° |
| 2026-05-05 13:43 | 50.66770 | -125.66073 | 36974 ft | 495 kts | 143° |
| 2026-05-05 13:43 | 50.61245 | -125.59566 | 36976 ft | 496 kts | 143° |
| 2026-05-05 13:44 | 50.55712 | -125.53064 | 36979 ft | 496 kts | 143° |
| 2026-05-05 13:44 | 50.50165 | -125.46566 | 36973 ft | 498 kts | 143° |
| 2026-05-05 13:45 | 50.44608 | -125.40076 | 36968 ft | 498 kts | 143° |
| 2026-05-05 13:45 | 50.39040 | -125.33595 | 36970 ft | 498 kts | 143° |
| 2026-05-05 13:46 | 50.33466 | -125.27127 | 36969 ft | 498 kts | 143° |
| 2026-05-05 13:46 | 50.27893 | -125.20676 | 36961 ft | 498 kts | 143° |
| 2026-05-05 13:47 | 50.22314 | -125.14239 | 36970 ft | 499 kts | 143° |
| 2026-05-05 13:47 | 50.16720 | -125.07804 | 36965 ft | 499 kts | 143° |
| 2026-05-05 13:48 | 50.11126 | -125.01388 | 36974 ft | 499 kts | 143° |
| 2026-05-05 13:48 | 50.05528 | -124.94987 | 36968 ft | 500 kts | 143° |
| 2026-05-05 13:49 | 49.99917 | -124.88588 | 36965 ft | 501 kts | 143° |
| 2026-05-05 13:49 | 49.94313 | -124.82163 | 36965 ft | 500 kts | 143° |
| 2026-05-05 13:50 | 49.88694 | -124.75804 | 36973 ft | 500 kts | 144° |
| 2026-05-05 13:50 | 49.83066 | -124.69477 | 36979 ft | 500 kts | 143° |
| 2026-05-05 13:51 | 49.77445 | -124.63156 | 36979 ft | 500 kts | 143° |
| 2026-05-05 13:51 | 49.71851 | -124.56873 | 36980 ft | 500 kts | 143° |
| 2026-05-05 13:52 | 49.66216 | -124.50559 | 36974 ft | 500 kts | 143° |
| 2026-05-05 13:52 | 49.60582 | -124.44264 | 36977 ft | 500 kts | 143° |
| 2026-05-05 13:53 | 49.54939 | -124.37980 | 36977 ft | 501 kts | 143° |
| 2026-05-05 13:53 | 49.49282 | -124.31698 | 36982 ft | 501 kts | 143° |
| 2026-05-05 13:54 | 49.43618 | -124.25425 | 36977 ft | 502 kts | 143° |
| 2026-05-05 13:54 | 49.37947 | -124.19165 | 36982 ft | 502 kts | 143° |
| 2026-05-05 13:55 | 49.32269 | -124.12915 | 36984 ft | 502 kts | 143° |
| 2026-05-05 13:55 | 49.26586 | -124.06677 | 36990 ft | 502 kts | 143° |
| 2026-05-05 13:56 | 49.20894 | -124.00448 | 36992 ft | 503 kts | 143° |
| 2026-05-05 13:56 | 49.15233 | -123.94269 | 36991 ft | 503 kts | 143° |
| 2026-05-05 13:57 | 49.09628 | -123.88172 | 36962 ft | 480 kts | 143° |
| 2026-05-05 13:57 | 49.06950 | -123.85267 | 36974 ft | 464 kts | 143° |
| 2026-05-05 13:57 | 49.04357 | -123.82457 | 36966 ft | 453 kts | 143° |
| 2026-05-05 13:58 | 48.99216 | -123.76887 | 37006 ft | 456 kts | 143° |
| 2026-05-05 13:58 | 48.93986 | -123.71236 | 37006 ft | 464 kts | 143° |
| 2026-05-05 13:59 | 48.86017 | -123.62660 | 37005 ft | 472 kts | 142° |
| 2026-05-05 14:00 | 48.79071 | -123.55213 | 36955 ft | 464 kts | 142° |
| 2026-05-05 14:00 | 48.75584 | -123.51486 | 36971 ft | 451 kts | 142° |
| 2026-05-05 14:00 | 48.73045 | -123.48776 | 36960 ft | 443 kts | 143° |
| 2026-05-05 14:01 | 48.67977 | -123.43828 | 36978 ft | 430 kts | 146° |
| 2026-05-05 14:01 | 48.62814 | -123.39095 | 36996 ft | 437 kts | 147° |
| 2026-05-05 14:02 | 48.57575 | -123.34282 | 36997 ft | 444 kts | 146° |
| 2026-05-05 14:02 | 48.52259 | -123.29362 | 37003 ft | 452 kts | 146° |
| 2026-05-05 14:03 | 48.46861 | -123.24361 | 37005 ft | 459 kts | 146° |
| 2026-05-05 14:03 | 48.41375 | -123.19290 | 37004 ft | 466 kts | 146° |
| 2026-05-05 14:04 | 48.35796 | -123.14148 | 37002 ft | 472 kts | 146° |
| 2026-05-05 14:04 | 48.30177 | -123.08985 | 36996 ft | 473 kts | 146° |
| 2026-05-05 14:05 | 48.24552 | -123.03829 | 37000 ft | 474 kts | 146° |
| 2026-05-05 14:05 | 48.19871 | -122.99548 | 37012 ft | 473 kts | 146° |
| 2026-05-05 14:06 | 48.14249 | -122.94416 | 37008 ft | 471 kts | 146° |
| 2026-05-05 14:06 | 48.08663 | -122.89330 | 37005 ft | 469 kts | 146° |
| 2026-05-05 14:07 | 48.03375 | -122.83786 | 36986 ft | 458 kts | 126° |
| 2026-05-05 14:07 | 47.99919 | -122.75998 | 37026 ft | 448 kts | 117° |
| 2026-05-05 14:08 | 47.97177 | -122.67770 | 37069 ft | 437 kts | 102° |
| 2026-05-05 14:08 | 47.95275 | -122.59088 | 37049 ft | 445 kts | 103° |
| 2026-05-05 14:09 | 47.92853 | -122.50520 | 37010 ft | 458 kts | 123° |
| 2026-05-05 14:09 | 47.90599 | -122.47136 | 37071 ft | 465 kts | 141° |
| 2026-05-05 14:09 | 47.87752 | -122.44809 | 37041 ft | 470 kts | 160° |
| 2026-05-05 14:10 | 47.81452 | -122.42151 | 37051 ft | 471 kts | 163° |
| 2026-05-05 14:10 | 47.75146 | -122.39402 | 37033 ft | 472 kts | 159° |
| 2026-05-05 14:11 | 47.69007 | -122.36115 | 37039 ft | 472 kts | 158° |
| 2026-05-05 14:11 | 47.62833 | -122.32790 | 37038 ft | 472 kts | 159° |
| 2026-05-05 14:12 | 47.56468 | -122.30775 | 37044 ft | 470 kts | 186° |
| 2026-05-05 14:12 | 47.49944 | -122.31665 | 37049 ft | 471 kts | 185° |
| 2026-05-05 14:13 | 47.46742 | -122.32624 | 37013 ft | 467 kts | 206° |
| 2026-05-05 14:13 | 47.43983 | -122.35019 | 36796 ft | 461 kts | 224° |
| 2026-05-05 14:13 | 47.41900 | -122.38504 | 35882 ft | 446 kts | 247° |
| 2026-05-05 14:13 | 47.40854 | -122.42672 | 35194 ft | 424 kts | 269° |
| 2026-05-05 14:14 | 47.40915 | -122.46904 | 34464 ft | 407 kts | 290° |
| 2026-05-05 14:14 | 47.42036 | -122.50644 | 33738 ft | 395 kts | 312° |
| 2026-05-05 14:14 | 47.44004 | -122.53362 | 32970 ft | 387 kts | 331° |
| 2026-05-05 14:14 | 47.46355 | -122.55185 | 32234 ft | 386 kts | 338° |
| 2026-05-05 14:15 | 47.48831 | -122.56759 | 31477 ft | 388 kts | 339° |
| 2026-05-05 14:15 | 47.51389 | -122.58054 | 30757 ft | 389 kts | 347° |
| 2026-05-05 14:15 | 47.54044 | -122.58895 | 30048 ft | 390 kts | 349° |
| 2026-05-05 14:15 | 47.56712 | -122.59663 | 29222 ft | 391 kts | 350° |
| 2026-05-05 14:16 | 47.59387 | -122.60428 | 28412 ft | 391 kts | 349° |
| 2026-05-05 14:16 | 47.62063 | -122.61210 | 27628 ft | 391 kts | 349° |
| 2026-05-05 14:16 | 47.64728 | -122.62009 | 26864 ft | 391 kts | 349° |
| 2026-05-05 14:16 | 47.67389 | -122.62822 | 26116 ft | 391 kts | 349° |
| 2026-05-05 14:17 | 47.70052 | -122.63644 | 25383 ft | 390 kts | 349° |
| 2026-05-05 14:17 | 47.72702 | -122.64468 | 24676 ft | 390 kts | 349° |
| 2026-05-05 14:17 | 47.75318 | -122.65282 | 23984 ft | 389 kts | 349° |
| 2026-05-05 14:17 | 47.77969 | -122.66108 | 23244 ft | 388 kts | 349° |
| 2026-05-05 14:18 | 47.80606 | -122.66930 | 22449 ft | 386 kts | 349° |
| 2026-05-05 14:18 | 47.83190 | -122.67736 | 21573 ft | 369 kts | 349° |
| 2026-05-05 14:18 | 47.85640 | -122.68306 | 20723 ft | 345 kts | 1° |
| 2026-05-05 14:18 | 47.87933 | -122.67738 | 19910 ft | 326 kts | 19° |
| 2026-05-05 14:19 | 47.89924 | -122.66276 | 19137 ft | 314 kts | 32° |
| 2026-05-05 14:19 | 47.91556 | -122.64195 | 18376 ft | 305 kts | 45° |
| 2026-05-05 14:19 | 47.92851 | -122.61734 | 17528 ft | 295 kts | 44° |
| 2026-05-05 14:19 | 47.94492 | -122.60106 | 16660 ft | 281 kts | 14° |
| 2026-05-05 14:20 | 47.96407 | -122.59891 | 15859 ft | 273 kts | 358° |
| 2026-05-05 14:20 | 47.98294 | -122.60046 | 15055 ft | 271 kts | 357° |
| 2026-05-05 14:20 | 48.00168 | -122.60214 | 14285 ft | 269 kts | 357° |
| 2026-05-05 14:20 | 48.02035 | -122.60382 | 13493 ft | 268 kts | 357° |
| 2026-05-05 14:21 | 48.03895 | -122.60546 | 12644 ft | 268 kts | 357° |
| 2026-05-05 14:21 | 48.05756 | -122.60706 | 11819 ft | 267 kts | 357° |
| 2026-05-05 14:21 | 48.07611 | -122.60860 | 11027 ft | 267 kts | 357° |
| 2026-05-05 14:21 | 48.09469 | -122.61010 | 10244 ft | 267 kts | 357° |
| 2026-05-05 14:22 | 48.11328 | -122.61154 | 9422 ft | 267 kts | 357° |
| 2026-05-05 14:22 | 48.13183 | -122.61295 | 8606 ft | 266 kts | 357° |
| 2026-05-05 14:22 | 48.14975 | -122.61425 | 8308 ft | 247 kts | 359° |
| 2026-05-05 14:22 | 48.16580 | -122.60916 | 8107 ft | 236 kts | 32° |
| 2026-05-05 14:23 | 48.17750 | -122.59186 | 8076 ft | 242 kts | 57° |
| 2026-05-05 14:23 | 48.18300 | -122.56780 | 8025 ft | 251 kts | 85° |
| 2026-05-05 14:23 | 48.17979 | -122.54202 | 7996 ft | 257 kts | 116° |
| 2026-05-05 14:23 | 48.16820 | -122.52188 | 7986 ft | 261 kts | 147° |
| 2026-05-05 14:24 | 48.15120 | -122.51195 | 8012 ft | 268 kts | 168° |
| 2026-05-05 14:24 | 48.13239 | -122.50766 | 8003 ft | 279 kts | 173° |
| 2026-05-05 14:24 | 48.11305 | -122.50455 | 8002 ft | 286 kts | 174° |
| 2026-05-05 14:24 | 48.09326 | -122.50146 | 7994 ft | 288 kts | 174° |
| 2026-05-05 14:25 | 48.07327 | -122.49816 | 7988 ft | 290 kts | 173° |
| 2026-05-05 14:25 | 48.05316 | -122.49466 | 7975 ft | 291 kts | 173° |
| 2026-05-05 14:25 | 48.03281 | -122.49099 | 7983 ft | 296 kts | 173° |
| 2026-05-05 14:25 | 48.01228 | -122.48721 | 7983 ft | 296 kts | 173° |
| 2026-05-05 14:26 | 47.99206 | -122.48344 | 7975 ft | 292 kts | 172° |
| 2026-05-05 14:26 | 47.97182 | -122.47964 | 7996 ft | 293 kts | 172° |
| 2026-05-05 14:26 | 47.95184 | -122.47589 | 7988 ft | 294 kts | 172° |
| 2026-05-05 14:26 | 47.93151 | -122.47207 | 7985 ft | 294 kts | 172° |
| 2026-05-05 14:27 | 47.91142 | -122.46677 | 7993 ft | 293 kts | 164° |
| 2026-05-05 14:27 | 47.89188 | -122.45815 | 7882 ft | 292 kts | 161° |
| 2026-05-05 14:27 | 47.87282 | -122.44905 | 7726 ft | 284 kts | 161° |
| 2026-05-05 14:27 | 47.85417 | -122.44023 | 7476 ft | 278 kts | 162° |
| 2026-05-05 14:28 | 47.83579 | -122.43177 | 7241 ft | 275 kts | 162° |
| 2026-05-05 14:28 | 47.81757 | -122.42355 | 7006 ft | 272 kts | 162° |
| 2026-05-05 14:28 | 47.79956 | -122.41554 | 6775 ft | 269 kts | 162° |
| 2026-05-05 14:28 | 47.78168 | -122.40762 | 6519 ft | 268 kts | 162° |
| 2026-05-05 14:29 | 47.76386 | -122.39961 | 6262 ft | 268 kts | 161° |
| 2026-05-05 14:29 | 47.74623 | -122.39054 | 5989 ft | 268 kts | 159° |
| 2026-05-05 14:29 | 47.72868 | -122.38115 | 5708 ft | 268 kts | 159° |
| 2026-05-05 14:29 | 47.71125 | -122.37182 | 5438 ft | 264 kts | 159° |
| 2026-05-05 14:30 | 47.69408 | -122.36267 | 5198 ft | 260 kts | 159° |
| 2026-05-05 14:30 | 47.67732 | -122.35380 | 4940 ft | 252 kts | 159° |
| 2026-05-05 14:30 | 47.66102 | -122.34520 | 4657 ft | 247 kts | 160° |
| 2026-05-05 14:30 | 47.64508 | -122.33683 | 4374 ft | 242 kts | 160° |
| 2026-05-05 14:31 | 47.62955 | -122.32869 | 4050 ft | 238 kts | 160° |
| 2026-05-05 14:31 | 47.61408 | -122.32058 | 3726 ft | 233 kts | 160° |
| 2026-05-05 14:31 | 47.59857 | -122.31605 | 3336 ft | 222 kts | 179° |
| 2026-05-05 14:31 | 47.58360 | -122.31653 | 2951 ft | 208 kts | 182° |
| 2026-05-05 14:32 | 47.56952 | -122.31699 | 2572 ft | 196 kts | 182° |
| 2026-05-05 14:32 | 47.55676 | -122.31713 | 2313 ft | 172 kts | 181° |
| 2026-05-05 14:32 | 47.54550 | -122.31722 | 2073 ft | 152 kts | 181° |
| 2026-05-05 14:32 | 47.53573 | -122.31729 | 1865 ft | 142 kts | 180° |
| 2026-05-05 14:33 | 47.52615 | -122.31732 | 1559 ft | 133 kts | 180° |
| 2026-05-05 14:33 | 47.51740 | -122.31747 | 1356 ft | 122 kts | 180° |
| 2026-05-05 14:33 | 47.50867 | -122.31750 | 1028 ft | 132 kts | 180° |
| 2026-05-05 14:33 | 47.49955 | -122.31753 | 1037 ft | 124 kts | 182° |
| 2026-05-05 14:34 | 47.49069 | -122.31763 | 935 ft | 138 kts | 180° |
| 2026-05-05 14:34 | 47.48061 | -122.31774 | 881 ft | 151 kts | 180° |
| 2026-05-05 14:34 | 47.46977 | -122.31779 | 591 ft | 154 kts | 181° |
| 2026-05-05 14:34 | 47.45956 | -122.31781 | 415 ft | 137 kts | 181° |
| 2026-05-05 14:35 | 47.45120 | -122.31804 | 393 ft | 99 kts | 176° |
| 2026-05-05 14:35 | 47.44657 | -122.31473 | 386 ft | 56 kts | 111° |
| 2026-05-05 14:35 | 47.44638 | -122.31131 | 394 ft | 13 kts | 128° |
| 2026-05-05 14:35 | 47.44549 | -122.31021 | 391 ft | 30 kts | 143° |
| 2026-05-05 14:36 | 47.44375 | -122.30858 | 392 ft | 25 kts | 133° |
| 2026-05-05 14:36 | 47.44313 | -122.30641 | 391 ft | 23 kts | 136° |
| 2026-05-05 14:36 | 47.44186 | -122.30626 | 387 ft | 11 kts | 173° |
| 2026-05-05 14:36 | 47.44137 | -122.30560 | 387 ft | 10 kts | 94° |
| 2026-05-05 14:37 | 47.44152 | -122.30519 | 387 ft | 4 kts | 59° |
| 2026-05-05 14:37 | 47.44161 | -122.30482 | 388 ft | 1 kts | 79° |
| 2026-05-05 14:37 | 47.44162 | -122.30463 | 388 ft | 0 kts | 86° |